createdAt,value
2022-07-30T00:01:48.788Z,99.90
2022-07-30T00:04:15.763Z,99.90
2022-07-30T00:06:44.184Z,99.90
2022-07-30T00:09:12.074Z,99.90
2022-07-30T00:11:39.983Z,99.90
2022-07-30T00:14:09.149Z,99.90
2022-07-30T00:16:37.487Z,99.90
2022-07-30T00:19:04.820Z,99.90
2022-07-30T00:21:39.181Z,99.90
2022-07-30T00:24:08.645Z,99.90
2022-07-30T00:26:36.874Z,99.90
2022-07-30T00:29:05.406Z,99.90
2022-07-30T00:31:33.506Z,99.90
2022-07-30T00:34:00.833Z,99.90
2022-07-30T00:36:31.888Z,99.90
2022-07-30T00:38:58.855Z,99.90
2022-07-30T00:41:26.837Z,99.90
2022-07-30T00:43:53.826Z,99.90
2022-07-30T00:46:22.140Z,99.90
2022-07-30T00:48:49.944Z,99.90
2022-07-30T00:51:18.053Z,99.90
2022-07-30T00:53:45.773Z,99.90
2022-07-30T00:56:13.860Z,99.90
2022-07-30T00:58:43.799Z,99.90
2022-07-30T01:01:12.004Z,99.90
2022-07-30T01:03:39.899Z,99.90
2022-07-30T01:06:14.450Z,99.90
2022-07-30T01:08:43.437Z,99.90
2022-07-30T01:11:11.965Z,99.90
2022-07-30T01:13:45.008Z,99.90
2022-07-30T01:16:13.592Z,99.90
2022-07-30T01:19:04.953Z,99.90
2022-07-30T01:21:37.486Z,99.90
2022-07-30T01:24:16.461Z,99.90
2022-07-30T01:26:44.180Z,99.90
2022-07-30T01:29:15.050Z,99.90
2022-07-30T01:31:44.664Z,99.90
2022-07-30T01:34:15.363Z,99.90
2022-07-30T01:36:45.635Z,99.90
2022-07-30T01:39:17.664Z,99.90
2022-07-30T01:41:45.668Z,99.90
2022-07-30T01:44:15.233Z,99.90
2022-07-30T01:46:54.482Z,99.90
2022-07-30T01:49:24.144Z,99.90
2022-07-30T01:51:54.789Z,99.90
2022-07-30T01:54:25.936Z,99.90
2022-07-30T01:56:56.397Z,99.90
2022-07-30T01:59:26.694Z,99.90
2022-07-30T02:01:54.864Z,99.90
2022-07-30T02:04:22.994Z,99.90
2022-07-30T02:07:04.891Z,99.90
2022-07-30T02:09:47.294Z,99.90
2022-07-30T02:12:29.714Z,99.90
2022-07-30T02:15:11.068Z,99.90
2022-07-30T02:17:54.842Z,99.90
2022-07-30T02:20:25.085Z,99.90
2022-07-30T02:23:07.659Z,99.90
2022-07-30T02:25:42.160Z,99.90
2022-07-30T02:28:15.419Z,99.90
2022-07-30T02:30:49.719Z,99.90
2022-07-30T02:33:22.510Z,99.90
2022-07-30T02:35:52.660Z,99.90
2022-07-30T02:38:21.954Z,99.90
2022-07-30T02:40:49.640Z,99.90
2022-07-30T02:43:20.794Z,99.90
2022-07-30T02:45:49.075Z,99.90
2022-07-30T02:48:34.441Z,99.90
2022-07-30T02:51:06.827Z,99.90
2022-07-30T02:53:36.649Z,99.90
2022-07-30T02:56:07.597Z,99.90
2022-07-30T02:58:37.920Z,99.90
2022-07-30T03:01:05.843Z,99.90
2022-07-30T03:03:35.038Z,99.90
2022-07-30T03:06:05.419Z,99.90
2022-07-30T03:08:35.220Z,99.90
2022-07-30T03:11:04.657Z,99.90
2022-07-30T03:13:32.136Z,99.90
2022-07-30T03:16:04.342Z,99.90
2022-07-30T03:18:35.073Z,99.90
2022-07-30T03:21:06.767Z,99.90
2022-07-30T03:23:37.087Z,99.90
2022-07-30T03:26:08.630Z,99.90
2022-07-30T03:28:40.296Z,99.90
2022-07-30T03:31:11.737Z,99.90
2022-07-30T03:33:40.424Z,99.90
2022-07-30T03:36:12.338Z,99.90
2022-07-30T03:38:42.395Z,99.90
2022-07-30T03:41:11.440Z,99.90
2022-07-30T03:43:41.863Z,99.90
2022-07-30T03:46:12.107Z,99.90
2022-07-30T03:48:43.826Z,99.90
2022-07-30T03:51:13.221Z,99.90
2022-07-30T03:53:42.584Z,99.90
2022-07-30T03:56:31.524Z,99.90
2022-07-30T03:59:16.415Z,99.90
2022-07-30T04:01:45.315Z,99.90
2022-07-30T04:04:21.712Z,99.90
2022-07-30T04:06:50.658Z,99.90
2022-07-30T04:09:20.705Z,99.90
2022-07-30T04:11:50.520Z,99.90
2022-07-30T04:14:25.017Z,99.90
2022-07-30T04:17:04.572Z,99.90
2022-07-30T04:19:42.374Z,99.90
2022-07-30T04:22:13.719Z,99.90
2022-07-30T04:24:44.234Z,99.90
2022-07-30T04:27:14.544Z,99.90
2022-07-30T04:29:43.235Z,99.90
2022-07-30T04:32:12.006Z,99.90
2022-07-30T04:35:00.379Z,99.90
2022-07-30T04:37:55.894Z,99.90
2022-07-30T04:40:25.036Z,99.90
2022-07-30T04:42:53.372Z,99.90
2022-07-30T04:45:21.805Z,99.90
2022-07-30T04:47:53.911Z,99.90
2022-07-30T04:50:42.455Z,99.90
2022-07-30T04:53:13.532Z,99.90
2022-07-30T04:55:49.356Z,99.90
2022-07-30T04:58:20.546Z,99.90
2022-07-30T05:00:50.413Z,99.90
2022-07-30T05:03:23.282Z,99.90
2022-07-30T05:05:57.326Z,99.90
2022-07-30T05:08:29.896Z,99.90
2022-07-30T05:11:01.199Z,99.90
2022-07-30T05:13:34.782Z,99.90
2022-07-30T05:16:10.388Z,99.90
2022-07-30T05:18:39.245Z,99.90
2022-07-30T05:21:07.792Z,99.90
2022-07-30T05:23:38.422Z,99.90
2022-07-30T05:26:14.008Z,99.90
2022-07-30T05:28:49.570Z,99.90
2022-07-30T05:31:26.387Z,99.90
2022-07-30T05:34:03.619Z,99.90
2022-07-30T05:36:43.023Z,99.90
2022-07-30T05:39:14.135Z,99.90
2022-07-30T05:41:51.444Z,99.90
2022-07-30T05:44:40.638Z,99.90
2022-07-30T05:47:08.844Z,99.90
2022-07-30T05:49:37.485Z,99.90
2022-07-30T05:52:11.562Z,99.90
2022-07-30T05:54:39.968Z,99.90
2022-07-30T05:57:31.297Z,99.90
2022-07-30T06:00:00.689Z,99.90
2022-07-30T06:02:45.052Z,99.90
2022-07-30T06:05:32.637Z,99.90
2022-07-30T06:08:03.355Z,99.90
2022-07-30T06:10:31.616Z,99.90
2022-07-30T06:13:00.226Z,99.90
2022-07-30T06:15:28.746Z,99.90
2022-07-30T06:18:01.423Z,99.90
2022-07-30T06:20:57.100Z,99.90
2022-07-30T06:23:38.217Z,99.90
2022-07-30T06:26:20.504Z,99.90
2022-07-30T06:28:49.004Z,99.90
2022-07-30T06:31:31.255Z,99.90
2022-07-30T06:33:59.762Z,99.90
2022-07-30T06:36:33.321Z,99.90
2022-07-30T06:39:04.033Z,99.90
2022-07-30T06:41:50.481Z,99.90
2022-07-30T06:44:18.908Z,99.90
2022-07-30T06:47:08.012Z,99.90
2022-07-30T06:49:38.109Z,99.90
2022-07-30T06:52:09.338Z,99.90
2022-07-30T06:54:38.196Z,99.90
2022-07-30T06:57:16.452Z,99.90
2022-07-30T06:59:56.124Z,99.90
2022-07-30T07:02:42.858Z,99.90
2022-07-30T07:05:13.982Z,99.90
2022-07-30T07:07:58.183Z,99.90
2022-07-30T07:10:30.883Z,99.90
2022-07-30T07:13:16.304Z,99.90
2022-07-30T07:15:45.028Z,99.90
2022-07-30T07:18:19.234Z,99.90
2022-07-30T07:20:58.356Z,99.90
2022-07-30T07:23:39.747Z,99.90
2022-07-30T07:26:21.973Z,99.90
2022-07-30T07:28:50.575Z,99.90
2022-07-30T07:32:06.082Z,99.90
2022-07-30T07:34:07.451Z,99.90
2022-07-30T07:36:36.461Z,99.90
2022-07-30T07:39:10.032Z,99.90
2022-07-30T07:41:48.848Z,99.90
2022-07-30T07:44:23.513Z,99.90
2022-07-30T07:46:51.703Z,99.90
2022-07-30T07:49:20.614Z,99.90
2022-07-30T07:51:52.230Z,99.90
2022-07-30T07:54:23.153Z,99.90
2022-07-30T07:56:55.868Z,99.90
2022-07-30T07:59:35.964Z,99.90
2022-07-30T08:02:11.601Z,99.90
2022-07-30T08:04:58.675Z,99.90
2022-07-30T08:07:46.055Z,99.90
2022-07-30T08:10:31.900Z,99.90
2022-07-30T08:13:48.731Z,99.90
2022-07-30T08:16:25.684Z,99.90
2022-07-30T08:19:21.947Z,99.90
2022-07-30T08:21:59.743Z,99.90
2022-07-30T08:24:31.529Z,99.90
2022-07-30T08:26:59.794Z,99.90
2022-07-30T08:29:28.228Z,99.90
2022-07-30T08:31:56.586Z,99.90
2022-07-30T08:34:27.045Z,99.90
2022-07-30T08:36:57.090Z,99.90
2022-07-30T08:39:25.453Z,99.90
2022-07-30T08:41:54.564Z,99.90
2022-07-30T08:44:23.533Z,99.90
2022-07-30T08:46:56.339Z,99.90
2022-07-30T08:49:44.138Z,99.90
2022-07-30T08:52:13.113Z,99.90
2022-07-30T08:54:44.866Z,99.90
2022-07-30T08:57:13.473Z,99.90
2022-07-30T09:00:00.735Z,99.90
2022-07-30T09:02:33.217Z,99.90
2022-07-30T09:05:06.391Z,99.90
2022-07-30T09:07:35.624Z,99.90
2022-07-30T09:10:09.008Z,99.90
2022-07-30T09:12:46.454Z,99.90
2022-07-30T09:15:22.380Z,99.90
2022-07-30T09:18:01.115Z,99.90
2022-07-30T09:20:35.494Z,99.90
2022-07-30T09:23:07.167Z,99.90
2022-07-30T09:25:57.035Z,99.90
2022-07-30T09:28:43.621Z,99.90
2022-07-30T09:31:16.824Z,99.90
2022-07-30T09:34:03.815Z,99.90
2022-07-30T09:37:26.296Z,99.90
2022-07-30T09:40:34.578Z,99.90
2022-07-30T09:43:32.864Z,99.90
2022-07-30T09:46:13.307Z,99.90
2022-07-30T09:48:42.298Z,99.90
2022-07-30T09:51:15.919Z,99.90
2022-07-30T09:53:59.307Z,99.90
2022-07-30T09:56:30.745Z,99.90
2022-07-30T09:59:00.247Z,99.90
2022-07-30T10:02:00.578Z,99.90
2022-07-30T10:04:46.992Z,99.90
2022-07-30T10:07:24.847Z,99.90
2022-07-30T10:09:54.406Z,99.90
2022-07-30T10:12:25.440Z,99.90
2022-07-30T10:14:56.057Z,99.90
2022-07-30T10:17:25.215Z,99.90
2022-07-30T10:20:13.025Z,99.90
2022-07-30T10:22:42.958Z,99.90
2022-07-30T10:25:30.453Z,99.90
2022-07-30T10:28:17.641Z,99.90
2022-07-30T10:30:49.641Z,99.90
2022-07-30T10:33:35.263Z,99.90
2022-07-30T10:36:05.684Z,99.90
2022-07-30T10:38:41.870Z,99.90
2022-07-30T10:41:48.465Z,99.90
2022-07-30T10:44:52.197Z,99.90
2022-07-30T10:47:20.157Z,99.90
2022-07-30T10:50:10.608Z,99.90
2022-07-30T10:52:50.801Z,99.90
2022-07-30T10:55:36.931Z,99.90
2022-07-30T10:58:14.240Z,99.90
2022-07-30T11:00:54.580Z,99.90
2022-07-30T11:03:41.250Z,99.90
2022-07-30T11:06:15.301Z,99.90
2022-07-30T11:08:45.454Z,99.90
2022-07-30T11:11:59.686Z,99.90
2022-07-30T11:14:08.389Z,99.90
2022-07-30T11:16:37.337Z,99.90
2022-07-30T11:19:56.542Z,99.90
2022-07-30T11:22:28.226Z,99.90
2022-07-30T11:24:55.595Z,99.90
2022-07-30T11:27:46.532Z,99.90
2022-07-30T11:30:17.020Z,99.90
2022-07-30T11:32:57.190Z,99.90
2022-07-30T11:35:34.498Z,99.90
2022-07-30T11:38:18.741Z,99.90
2022-07-30T11:40:46.244Z,99.90
2022-07-30T11:43:37.145Z,99.90
2022-07-30T11:46:29.674Z,99.90
2022-07-30T11:49:09.036Z,99.90
2022-07-30T11:51:45.790Z,99.90
2022-07-30T11:54:14.783Z,99.90
2022-07-30T11:56:54.388Z,99.90
2022-07-30T11:59:22.729Z,99.90
2022-07-30T12:01:52.942Z,99.90
2022-07-30T12:04:21.016Z,99.90
2022-07-30T12:06:48.994Z,99.90
2022-07-30T12:09:29.240Z,99.90
2022-07-30T12:11:57.294Z,99.90
2022-07-30T12:14:25.036Z,99.90
2022-07-30T12:16:54.502Z,99.90
2022-07-30T12:19:22.986Z,99.90
2022-07-30T12:21:53.360Z,99.90
2022-07-30T12:24:26.300Z,99.90
2022-07-30T12:27:03.804Z,99.90
2022-07-30T12:29:33.285Z,99.90
2022-07-30T12:32:01.837Z,99.90
2022-07-30T12:34:29.856Z,99.90
2022-07-30T12:37:10.227Z,99.90
2022-07-30T12:39:38.409Z,99.90
2022-07-30T12:42:21.195Z,99.90
2022-07-30T12:44:50.260Z,99.90
2022-07-30T12:47:24.873Z,99.90
2022-07-30T12:50:15.710Z,99.90
2022-07-30T12:52:51.571Z,99.90
2022-07-30T12:55:29.093Z,99.90
2022-07-30T12:58:05.432Z,99.90
2022-07-30T13:00:53.595Z,99.90
2022-07-30T13:03:27.055Z,99.90
2022-07-30T13:05:58.379Z,99.90
2022-07-30T13:08:52.058Z,99.90
2022-07-30T13:11:21.457Z,99.90
2022-07-30T13:13:49.767Z,99.90
2022-07-30T13:16:19.675Z,99.90
2022-07-30T13:18:49.222Z,99.90
2022-07-30T13:21:16.668Z,99.90
2022-07-30T13:23:46.188Z,99.90
2022-07-30T13:26:13.565Z,99.90
2022-07-30T13:28:49.484Z,99.90
2022-07-30T13:31:18.379Z,99.90
2022-07-30T13:33:47.044Z,99.90
2022-07-30T13:36:14.638Z,99.90
2022-07-30T13:38:43.627Z,99.20
2022-07-30T13:41:11.618Z,99.90
2022-07-30T13:43:40.743Z,99.50
2022-07-30T13:46:08.983Z,99.90
2022-07-30T13:48:37.519Z,99.90
2022-07-30T13:51:05.689Z,99.90
2022-07-30T13:53:33.542Z,99.90
2022-07-30T13:56:01.808Z,99.90
2022-07-30T13:58:34.077Z,99.90
2022-07-30T14:01:06.989Z,99.70
2022-07-30T14:03:35.974Z,99.00
2022-07-30T14:06:10.645Z,98.70
2022-07-30T14:08:39.709Z,99.20
2022-07-30T14:11:08.640Z,99.40
2022-07-30T14:13:36.840Z,98.00
2022-07-30T14:16:10.611Z,99.00
2022-07-30T14:18:46.967Z,99.90
2022-07-30T14:21:14.734Z,99.90
2022-07-30T14:23:42.685Z,99.30
2022-07-30T14:26:10.350Z,99.50
2022-07-30T14:28:38.333Z,99.80
2022-07-30T14:31:05.731Z,99.90
2022-07-30T14:33:33.901Z,99.90
2022-07-30T14:36:01.468Z,99.90
2022-07-30T14:38:30.804Z,99.50
2022-07-30T14:40:58.420Z,99.90
2022-07-30T14:43:27.936Z,99.90
2022-07-30T14:45:55.611Z,99.90
2022-07-30T14:48:23.698Z,99.90
2022-07-30T14:51:13.069Z,99.90
2022-07-30T14:53:39.630Z,99.90
2022-07-30T14:56:08.550Z,99.90
2022-07-30T14:58:36.756Z,99.90
2022-07-30T15:01:16.558Z,99.90
2022-07-30T15:03:45.608Z,99.90
2022-07-30T15:06:15.619Z,99.90
2022-07-30T15:08:46.063Z,99.90
2022-07-30T15:11:13.507Z,99.90
2022-07-30T15:13:49.756Z,99.90
2022-07-30T15:16:19.799Z,99.90
2022-07-30T15:18:47.555Z,99.90
2022-07-30T15:21:15.702Z,99.90
2022-07-30T15:23:43.626Z,99.90
2022-07-30T15:26:12.484Z,99.90
2022-07-30T15:28:39.561Z,99.90
2022-07-30T15:31:07.602Z,99.90
2022-07-30T15:33:37.300Z,99.90
2022-07-30T15:36:06.240Z,99.90
2022-07-30T15:38:33.515Z,99.90
2022-07-30T15:41:02.664Z,99.90
2022-07-30T15:43:30.681Z,99.90
2022-07-30T15:45:58.699Z,99.90
2022-07-30T15:48:27.909Z,99.90
2022-07-30T15:51:10.571Z,99.90
2022-07-30T15:53:37.478Z,99.90
2022-07-30T15:56:05.796Z,99.90
2022-07-30T15:58:33.653Z,99.90
2022-07-30T16:01:04.136Z,99.90
2022-07-30T16:03:31.577Z,99.90
2022-07-30T16:06:00.092Z,99.90
2022-07-30T16:08:34.960Z,99.90
2022-07-30T16:11:04.546Z,99.90
2022-07-30T16:13:33.113Z,99.90
2022-07-30T16:16:02.149Z,99.90
2022-07-30T16:18:30.226Z,99.90
2022-07-30T16:21:01.116Z,99.90
2022-07-30T16:23:36.301Z,99.90
2022-07-30T16:26:05.538Z,99.90
2022-07-30T16:28:33.704Z,99.90
2022-07-30T16:31:02.411Z,99.90
2022-07-30T16:33:30.518Z,99.90
2022-07-30T16:35:58.874Z,99.90
2022-07-30T16:38:27.325Z,99.90
2022-07-30T16:40:55.539Z,99.90
2022-07-30T16:43:23.599Z,99.90
2022-07-30T16:45:51.799Z,99.90
2022-07-30T16:48:20.124Z,99.90
2022-07-30T16:50:48.640Z,99.90
2022-07-30T16:53:16.656Z,99.90
2022-07-30T16:55:45.661Z,99.90
2022-07-30T16:58:13.850Z,99.90
2022-07-30T17:00:42.457Z,99.90
2022-07-30T17:03:11.850Z,99.90
2022-07-30T17:05:45.121Z,99.90
2022-07-30T17:08:13.550Z,99.90
2022-07-30T17:10:41.051Z,99.90
2022-07-30T17:13:08.987Z,99.90
2022-07-30T17:15:37.161Z,99.90
2022-07-30T17:18:05.435Z,99.90
2022-07-30T17:20:34.177Z,99.90
2022-07-30T17:23:02.587Z,99.90
2022-07-30T17:25:31.241Z,99.90
2022-07-30T17:27:59.624Z,99.90
2022-07-30T17:30:29.129Z,99.90
2022-07-30T17:32:57.271Z,99.90
2022-07-30T17:35:26.023Z,99.90
2022-07-30T17:37:55.423Z,99.90
2022-07-30T17:40:28.924Z,99.90
2022-07-30T17:43:06.005Z,99.90
2022-07-30T17:45:35.972Z,99.90
2022-07-30T17:48:05.652Z,99.90
2022-07-30T17:50:34.827Z,99.90
2022-07-30T17:53:04.701Z,99.90
2022-07-30T17:55:35.591Z,99.90
2022-07-30T17:58:06.701Z,99.90
2022-07-30T18:00:35.600Z,99.90
2022-07-30T18:03:04.534Z,99.90
2022-07-30T18:05:33.093Z,99.90
2022-07-30T18:08:02.344Z,99.90
2022-07-30T18:10:29.316Z,99.90
2022-07-30T18:12:57.139Z,99.90
2022-07-30T18:15:25.294Z,99.90
2022-07-30T18:17:53.910Z,99.90
2022-07-30T18:20:22.302Z,99.90
2022-07-30T18:22:51.667Z,99.90
2022-07-30T18:25:20.213Z,99.90
2022-07-30T18:27:51.561Z,99.90
2022-07-30T18:30:19.899Z,99.90
2022-07-30T18:32:48.800Z,99.90
2022-07-30T18:35:17.531Z,99.90
2022-07-30T18:37:45.803Z,99.90
2022-07-30T18:40:16.405Z,99.90
2022-07-30T18:42:47.375Z,99.90
2022-07-30T18:45:15.795Z,99.90
2022-07-30T18:47:47.305Z,99.90
2022-07-30T18:50:16.526Z,99.90
2022-07-30T18:52:45.216Z,99.90
2022-07-30T18:55:13.786Z,99.90
2022-07-30T18:57:42.512Z,99.90
2022-07-30T19:00:33.959Z,99.90
2022-07-30T19:03:01.765Z,99.90
2022-07-30T19:05:30.001Z,99.90
2022-07-30T19:07:58.669Z,99.90
2022-07-30T19:10:27.086Z,99.90
2022-07-30T19:12:56.048Z,99.90
2022-07-30T19:15:24.443Z,99.90
2022-07-30T19:17:52.977Z,99.90
2022-07-30T19:20:23.387Z,99.90
2022-07-30T19:22:53.348Z,99.90
2022-07-30T19:25:21.554Z,99.90
2022-07-30T19:27:49.628Z,99.90
2022-07-30T19:30:17.563Z,99.90
2022-07-30T19:32:45.946Z,99.90
2022-07-30T19:35:14.574Z,99.90
2022-07-30T19:37:43.084Z,99.90
2022-07-30T19:40:13.172Z,99.90
2022-07-30T19:42:41.739Z,99.90
2022-07-30T19:45:12.103Z,99.90
2022-07-30T19:47:42.762Z,99.90
2022-07-30T19:50:11.942Z,99.90
2022-07-30T19:52:40.568Z,99.90
2022-07-30T19:55:30.700Z,99.90
2022-07-30T19:58:16.236Z,99.90
2022-07-30T20:00:49.684Z,99.90
2022-07-30T20:03:25.314Z,99.90
2022-07-30T20:05:57.028Z,99.90
2022-07-30T20:08:27.876Z,99.90
2022-07-30T20:10:57.331Z,99.90
2022-07-30T20:13:44.610Z,99.90
2022-07-30T20:16:15.676Z,99.90
2022-07-30T20:18:45.864Z,99.90
2022-07-30T20:21:16.010Z,99.90
2022-07-30T20:23:45.243Z,99.90
2022-07-30T20:26:15.262Z,99.90
2022-07-30T20:28:52.644Z,99.90
2022-07-30T20:31:21.521Z,99.90
2022-07-30T20:33:50.758Z,99.90
2022-07-30T20:36:19.623Z,99.90
2022-07-30T20:38:50.046Z,99.90
2022-07-30T20:41:19.073Z,99.90
2022-07-30T20:43:52.009Z,99.90
2022-07-30T20:46:23.686Z,99.90
2022-07-30T20:48:52.820Z,99.90
2022-07-30T20:51:32.920Z,99.90
2022-07-30T20:54:02.502Z,99.90
2022-07-30T20:56:31.104Z,99.90
2022-07-30T20:58:59.130Z,99.90
2022-07-30T21:01:28.599Z,99.90
2022-07-30T21:03:58.690Z,99.90
2022-07-30T21:06:29.221Z,99.90
2022-07-30T21:08:57.362Z,99.90
2022-07-30T21:11:26.664Z,99.90
2022-07-30T21:13:55.275Z,99.90
2022-07-30T21:16:26.714Z,99.90
2022-07-30T21:18:58.785Z,99.90
2022-07-30T21:21:38.210Z,99.90
2022-07-30T21:24:20.052Z,99.90
2022-07-30T21:26:50.376Z,99.90
2022-07-30T21:29:19.209Z,99.90
2022-07-30T21:32:01.335Z,99.90
2022-07-30T21:34:42.022Z,99.90
2022-07-30T21:37:12.987Z,99.90
2022-07-30T21:39:43.889Z,99.90
2022-07-30T21:42:12.438Z,99.90
2022-07-30T21:44:40.475Z,99.90
2022-07-30T21:47:10.746Z,99.90
2022-07-30T21:49:40.018Z,99.90
2022-07-30T21:52:11.126Z,99.90
2022-07-30T21:54:48.317Z,99.90
2022-07-30T21:57:23.150Z,99.90
2022-07-30T21:59:55.492Z,99.90
2022-07-30T22:02:25.051Z,99.90
2022-07-30T22:04:53.737Z,99.90
2022-07-30T22:07:22.349Z,99.90
2022-07-30T22:09:50.681Z,99.90
2022-07-30T22:12:18.861Z,99.90
2022-07-30T22:14:47.011Z,99.90
2022-07-30T22:17:23.646Z,99.90
2022-07-30T22:20:08.558Z,99.90
2022-07-30T22:22:37.712Z,99.90
2022-07-30T22:25:06.829Z,99.90
2022-07-30T22:27:55.955Z,99.90
2022-07-30T22:30:30.268Z,99.90
2022-07-30T22:33:16.163Z,99.90
2022-07-30T22:35:49.562Z,99.90
2022-07-30T22:38:19.380Z,99.90
2022-07-30T22:40:48.350Z,99.90
2022-07-30T22:43:17.821Z,99.90
2022-07-30T22:45:49.903Z,99.90
2022-07-30T22:48:19.980Z,99.90
2022-07-30T22:50:54.560Z,99.90
2022-07-30T22:54:11.062Z,99.90
2022-07-30T22:56:14.333Z,99.90
2022-07-30T22:58:44.386Z,99.90
2022-07-30T23:01:12.622Z,99.90
2022-07-30T23:03:41.404Z,99.90
2022-07-30T23:06:14.775Z,99.90
2022-07-30T23:08:44.399Z,99.90
2022-07-30T23:11:12.739Z,99.90
2022-07-30T23:13:40.650Z,99.90
2022-07-30T23:16:08.712Z,99.90
2022-07-30T23:18:36.745Z,99.90
2022-07-30T23:21:05.030Z,99.90
2022-07-30T23:23:35.604Z,99.90
2022-07-30T23:26:08.420Z,99.90
2022-07-30T23:28:37.172Z,99.90
2022-07-30T23:31:05.229Z,99.90
2022-07-30T23:33:33.327Z,99.90
2022-07-30T23:36:02.121Z,99.90
2022-07-30T23:38:31.823Z,99.90
2022-07-30T23:41:02.043Z,99.90
2022-07-30T23:43:31.404Z,99.90
2022-07-30T23:46:00.254Z,99.90
2022-07-30T23:48:29.346Z,99.90
2022-07-30T23:50:58.308Z,99.90
2022-07-30T23:53:26.494Z,99.90
2022-07-30T23:55:54.912Z,99.90
2022-07-30T23:58:22.882Z,99.90
